Time;durP1;ratioP1;P1;durP2;ratioP2;P2;SDS_P1;SDS_P2;PMS_P1;PMS_P2;Temp;Humidity;BMP_temperature;BMP_pressure;BME280_temperature;BME280_humidity;BME280_pressure;Samples;Min_cycle;Max_cycle;Signal;HPM_P1;HPM_P2
2022/07/11 00:02:11;;;;;;;;;;;18.70;99.90;;;;;;5072174;28;19913;-70
2022/07/11 00:04:37;;;;;;;;;;;18.70;99.90;;;;;;5053983;28;19966;-70
2022/07/11 00:07:03;;;;;;;;;;;18.60;99.90;;;;;;5072094;28;19908;-70
2022/07/11 00:09:29;;;;;;;;;;;18.60;99.90;;;;;;5072140;28;20019;-70
2022/07/11 00:11:54;;;;;;;;;;;18.50;99.90;;;;;;5072211;28;20216;-70
2022/07/11 00:14:21;;;;;;;;;;;18.50;99.90;;;;;;5072022;28;19970;-70
2022/07/11 00:16:47;;;;;;;;;;;18.50;99.90;;;;;;5071984;28;20489;-70
2022/07/11 00:19:13;;;;;;;;;;;18.40;99.90;;;;;;5071834;28;19920;-70
2022/07/11 00:21:38;;;;;;;;;;;18.40;99.90;;;;;;5071599;28;19939;-69
2022/07/11 00:24:04;;;;;;;;;;;18.40;99.90;;;;;;5071603;28;19932;-69
2022/07/11 00:26:29;;;;;;;;;;;18.40;99.90;;;;;;5071312;28;19918;-69
2022/07/11 00:28:55;;;;;;;;;;;18.40;99.90;;;;;;5071489;28;19917;-69
2022/07/11 00:31:20;;;;;;;;;;;18.30;99.90;;;;;;5071443;28;19908;-70
2022/07/11 00:33:46;;;;;;;;;;;18.20;99.90;;;;;;5071716;28;19990;-70
2022/07/11 00:36:12;;;;;;;;;;;18.20;99.90;;;;;;5071477;28;19921;-70
2022/07/11 00:38:37;;;;;;;;;;;18.20;99.90;;;;;;5071834;28;20246;-70
2022/07/11 00:41:03;;;;;;;;;;;18.10;99.90;;;;;;5071368;28;19935;-70
2022/07/11 00:43:29;;;;;;;;;;;18.20;99.90;;;;;;5071285;28;19912;-70
2022/07/11 00:45:55;;;;;;;;;;;18.10;99.90;;;;;;5053361;28;19982;-69
2022/07/11 00:48:20;;;;;;;;;;;18.10;99.90;;;;;;5071380;28;20445;-70
2022/07/11 00:50:46;;;;;;;;;;;18.10;99.90;;;;;;5071056;28;19912;-70
2022/07/11 00:53:11;;;;;;;;;;;18.10;99.90;;;;;;5071232;28;20002;-70
2022/07/11 00:55:37;;;;;;;;;;;18.00;99.90;;;;;;5071046;28;20011;-69
2022/07/11 00:58:03;;;;;;;;;;;18.00;99.90;;;;;;5071426;28;19913;-70
2022/07/11 01:00:28;;;;;;;;;;;18.00;99.90;;;;;;5070984;28;19916;-70
2022/07/11 01:02:54;;;;;;;;;;;18.00;99.90;;;;;;5071162;28;20356;-70
2022/07/11 01:05:19;;;;;;;;;;;18.00;99.90;;;;;;5070832;28;19916;-70
2022/07/11 01:07:44;;;;;;;;;;;18.00;99.90;;;;;;5071134;28;20028;-70
2022/07/11 01:10:10;;;;;;;;;;;17.90;99.90;;;;;;5070823;28;19913;-69
2022/07/11 01:12:35;;;;;;;;;;;17.90;99.90;;;;;;5070879;28;19923;-70
2022/07/11 01:15:02;;;;;;;;;;;17.90;99.90;;;;;;5070977;28;19990;-70
2022/07/11 01:17:28;;;;;;;;;;;17.80;99.90;;;;;;5070702;28;19951;-70
2022/07/11 01:19:54;;;;;;;;;;;17.90;99.90;;;;;;5070628;28;20311;-70
2022/07/11 01:22:22;;;;;;;;;;;17.80;99.90;;;;;;5070591;28;19916;-70
2022/07/11 01:24:47;;;;;;;;;;;17.90;99.90;;;;;;5070422;28;19912;-70
2022/07/11 01:27:14;;;;;;;;;;;17.80;99.90;;;;;;5070690;28;19917;-70
2022/07/11 01:29:39;;;;;;;;;;;17.80;99.90;;;;;;5070398;28;20226;-70
2022/07/11 01:32:05;;;;;;;;;;;17.80;99.90;;;;;;5052553;28;20233;-70
2022/07/11 01:34:31;;;;;;;;;;;17.70;99.90;;;;;;5070313;28;19924;-70
2022/07/11 01:36:56;;;;;;;;;;;17.70;99.90;;;;;;5035834;28;20367;-70
2022/07/11 01:39:22;;;;;;;;;;;17.60;99.90;;;;;;5069723;28;20288;-70
2022/07/11 01:41:47;;;;;;;;;;;17.70;99.90;;;;;;5070428;28;20062;-70
2022/07/11 01:44:13;;;;;;;;;;;17.60;99.90;;;;;;5052194;28;19913;-70
2022/07/11 01:46:38;;;;;;;;;;;17.60;99.90;;;;;;5052315;28;19916;-70
2022/07/11 01:49:04;;;;;;;;;;;17.60;99.90;;;;;;5070268;28;20360;-70
2022/07/11 01:51:29;;;;;;;;;;;17.40;99.90;;;;;;5052264;28;20377;-69
2022/07/11 01:53:55;;;;;;;;;;;17.50;99.90;;;;;;5070220;28;20011;-70
2022/07/11 01:56:21;;;;;;;;;;;17.50;99.90;;;;;;5070313;28;19916;-70
2022/07/11 01:58:47;;;;;;;;;;;17.40;99.90;;;;;;5070667;28;19912;-70
2022/07/11 02:01:12;;;;;;;;;;;17.40;99.90;;;;;;5070413;28;19920;-70
2022/07/11 02:03:38;;;;;;;;;;;17.40;99.90;;;;;;5052302;28;19917;-70
2022/07/11 02:06:04;;;;;;;;;;;17.40;99.90;;;;;;5070397;28;19912;-70
2022/07/11 02:08:29;;;;;;;;;;;17.40;99.90;;;;;;5070439;28;19913;-69
2022/07/11 02:10:55;;;;;;;;;;;17.30;99.90;;;;;;5070085;28;19935;-70
2022/07/11 02:13:22;;;;;;;;;;;17.30;99.90;;;;;;5070335;28;19939;-69
2022/07/11 02:15:52;;;;;;;;;;;17.30;99.90;;;;;;5070284;28;20402;-70
2022/07/11 02:18:18;;;;;;;;;;;17.30;99.90;;;;;;5070271;28;20003;-69
2022/07/11 02:20:45;;;;;;;;;;;17.30;99.90;;;;;;5070065;28;20010;-69
2022/07/11 02:23:12;;;;;;;;;;;17.40;99.90;;;;;;5051937;28;19919;-70
2022/07/11 02:25:38;;;;;;;;;;;17.40;99.90;;;;;;5070131;28;19916;-69
2022/07/11 02:28:04;;;;;;;;;;;17.40;99.90;;;;;;5052040;28;20340;-70
2022/07/11 02:30:30;;;;;;;;;;;17.30;99.90;;;;;;5052084;28;19916;-70
2022/07/11 02:32:55;;;;;;;;;;;17.30;99.90;;;;;;5070383;28;19965;-70
2022/07/11 02:35:21;;;;;;;;;;;17.30;99.90;;;;;;5051997;28;20330;-70
2022/07/11 02:37:46;;;;;;;;;;;17.30;99.90;;;;;;5070188;28;19912;-70
2022/07/11 02:40:12;;;;;;;;;;;17.30;99.90;;;;;;5051712;28;19934;-69
2022/07/11 02:42:37;;;;;;;;;;;17.30;99.90;;;;;;5070144;28;19956;-70
2022/07/11 02:45:03;;;;;;;;;;;17.30;99.90;;;;;;5069745;28;20284;-70
2022/07/11 02:47:29;;;;;;;;;;;17.30;99.90;;;;;;5069668;28;19954;-70
2022/07/11 02:49:54;;;;;;;;;;;17.30;99.90;;;;;;5069761;28;19951;-69
2022/07/11 02:52:20;;;;;;;;;;;17.30;99.90;;;;;;5072812;28;20433;-69
2022/07/11 02:54:45;;;;;;;;;;;17.30;99.90;;;;;;5055143;28;19917;-70
2022/07/11 02:57:11;;;;;;;;;;;17.30;99.90;;;;;;5073487;28;19916;-70
2022/07/11 02:59:36;;;;;;;;;;;17.30;99.90;;;;;;5073237;28;20182;-70
2022/07/11 03:02:04;;;;;;;;;;;17.30;99.90;;;;;;5073298;28;20268;-70
2022/07/11 03:04:31;;;;;;;;;;;17.30;99.90;;;;;;5073064;28;19943;-70
2022/07/11 03:06:57;;;;;;;;;;;17.30;99.90;;;;;;5073233;28;19913;-70
2022/07/11 03:09:23;;;;;;;;;;;17.30;99.90;;;;;;5073531;28;19920;-70
2022/07/11 03:11:50;;;;;;;;;;;17.40;99.90;;;;;;5073328;28;20311;-70
2022/07/11 03:14:15;;;;;;;;;;;17.40;99.90;;;;;;5073146;28;19966;-70
2022/07/11 03:16:42;;;;;;;;;;;17.40;99.90;;;;;;5073015;28;20321;-69
2022/07/11 03:19:07;;;;;;;;;;;17.50;99.90;;;;;;5072828;28;19916;-70
2022/07/11 03:21:33;;;;;;;;;;;17.50;99.90;;;;;;5054826;28;19919;-70
2022/07/11 03:23:58;;;;;;;;;;;17.50;99.90;;;;;;5072826;28;19966;-70
2022/07/11 03:26:24;;;;;;;;;;;17.50;99.90;;;;;;5072721;28;19908;-69
2022/07/11 03:28:49;;;;;;;;;;;17.50;99.90;;;;;;5073169;28;19913;-70
2022/07/11 03:31:15;;;;;;;;;;;17.50;99.90;;;;;;5072738;28;20148;-70
2022/07/11 03:33:41;;;;;;;;;;;17.60;99.90;;;;;;5073039;28;19924;-69
2022/07/11 03:36:06;;;;;;;;;;;17.60;99.90;;;;;;5072518;28;19912;-70
2022/07/11 03:38:32;;;;;;;;;;;17.60;99.90;;;;;;5072980;28;19960;-70
2022/07/11 03:40:57;;;;;;;;;;;17.60;99.90;;;;;;5072235;28;20011;-69
2022/07/11 03:43:23;;;;;;;;;;;17.60;99.90;;;;;;5054626;28;19931;-69
2022/07/11 03:45:48;;;;;;;;;;;17.60;99.90;;;;;;5054267;28;19913;-70
2022/07/11 03:48:14;;;;;;;;;;;17.60;99.90;;;;;;5054736;28;20013;-69
2022/07/11 03:50:39;;;;;;;;;;;17.50;99.90;;;;;;5072284;28;19913;-70
2022/07/11 03:53:05;;;;;;;;;;;17.60;99.90;;;;;;5072504;28;20007;-70
2022/07/11 03:55:31;;;;;;;;;;;17.60;99.90;;;;;;5054160;28;19947;-70
2022/07/11 03:57:56;;;;;;;;;;;17.60;99.90;;;;;;5072444;28;19919;-70
2022/07/11 04:00:22;;;;;;;;;;;17.60;99.90;;;;;;5072150;28;19916;-70
2022/07/11 04:02:48;;;;;;;;;;;17.60;99.90;;;;;;5071568;28;19919;-70
2022/07/11 04:05:14;;;;;;;;;;;17.60;99.90;;;;;;5072068;28;19920;-70
2022/07/11 04:07:40;;;;;;;;;;;17.70;99.90;;;;;;5054050;28;19912;-70
2022/07/11 04:10:06;;;;;;;;;;;17.70;99.90;;;;;;5072058;28;19924;-70
2022/07/11 04:12:31;;;;;;;;;;;17.70;99.90;;;;;;5072080;28;19912;-70
2022/07/11 04:14:57;;;;;;;;;;;17.70;99.90;;;;;;5071630;28;19999;-70
2022/07/11 04:17:22;;;;;;;;;;;17.60;99.90;;;;;;5071959;28;19965;-70
2022/07/11 04:19:48;;;;;;;;;;;17.60;99.90;;;;;;5071643;28;19939;-70
2022/07/11 04:22:13;;;;;;;;;;;17.60;99.90;;;;;;5071814;28;19913;-70
2022/07/11 04:24:39;;;;;;;;;;;17.60;99.90;;;;;;5071477;28;20132;-70
2022/07/11 04:27:04;;;;;;;;;;;17.60;99.90;;;;;;5071621;28;20408;-70
2022/07/11 04:29:30;;;;;;;;;;;17.60;99.90;;;;;;5071375;28;19997;-70
2022/07/11 04:31:55;;;;;;;;;;;17.70;99.90;;;;;;5053403;28;19917;-70
2022/07/11 04:34:21;;;;;;;;;;;17.70;99.90;;;;;;5071796;28;19966;-70
2022/07/11 04:36:46;;;;;;;;;;;17.60;99.90;;;;;;5053203;28;20272;-70
2022/07/11 04:39:12;;;;;;;;;;;17.60;99.90;;;;;;5071368;28;19917;-70
2022/07/11 04:41:37;;;;;;;;;;;17.60;99.90;;;;;;5070939;28;20293;-70
2022/07/11 04:44:03;;;;;;;;;;;17.70;99.90;;;;;;5053372;28;20363;-71
2022/07/11 04:46:29;;;;;;;;;;;17.70;99.90;;;;;;5071216;28;20002;-70
2022/07/11 04:48:55;;;;;;;;;;;17.60;99.90;;;;;;5071348;28;19993;-70
2022/07/11 04:51:20;;;;;;;;;;;17.70;99.90;;;;;;5071039;28;19915;-70
2022/07/11 04:53:46;;;;;;;;;;;17.60;99.90;;;;;;5071359;28;19912;-70
2022/07/11 04:56:11;;;;;;;;;;;17.70;99.90;;;;;;5070844;28;19916;-70
2022/07/11 04:58:37;;;;;;;;;;;17.70;99.90;;;;;;5070827;28;19912;-70
2022/07/11 05:01:03;;;;;;;;;;;17.70;99.90;;;;;;5070851;28;19946;-70
2022/07/11 05:03:29;;;;;;;;;;;17.70;99.90;;;;;;5071016;28;19913;-70
2022/07/11 05:05:54;;;;;;;;;;;17.70;99.90;;;;;;5070627;28;19916;-70
2022/07/11 05:08:20;;;;;;;;;;;17.80;99.90;;;;;;5071042;28;19912;-70
2022/07/11 05:10:46;;;;;;;;;;;17.80;99.90;;;;;;5070958;28;19920;-70
2022/07/11 05:13:11;;;;;;;;;;;17.80;99.90;;;;;;5070329;28;20355;-70
2022/07/11 05:15:38;;;;;;;;;;;17.80;99.90;;;;;;5070515;28;19920;-70
2022/07/11 05:18:04;;;;;;;;;;;17.80;99.90;;;;;;5071061;28;19909;-70
2022/07/11 05:20:29;;;;;;;;;;;17.90;99.90;;;;;;5070473;28;20395;-70
2022/07/11 05:22:55;;;;;;;;;;;17.90;99.90;;;;;;5070878;28;19912;-70
2022/07/11 05:25:21;;;;;;;;;;;18.00;99.90;;;;;;5070414;28;20021;-70
2022/07/11 05:27:47;;;;;;;;;;;18.00;99.90;;;;;;5070448;28;20457;-70
2022/07/11 05:30:12;;;;;;;;;;;18.00;99.90;;;;;;5070481;28;19920;-70
2022/07/11 05:32:38;;;;;;;;;;;18.10;99.90;;;;;;5052352;28;20348;-70
2022/07/11 05:35:04;;;;;;;;;;;18.20;99.90;;;;;;5070623;28;19924;-70
2022/07/11 05:37:30;;;;;;;;;;;18.10;99.90;;;;;;5070321;28;19909;-70
2022/07/11 05:39:55;;;;;;;;;;;18.10;99.90;;;;;;5070216;28;19931;-70
2022/07/11 05:42:21;;;;;;;;;;;18.20;99.90;;;;;;5070178;28;19917;-70
2022/07/11 05:44:48;;;;;;;;;;;18.10;99.90;;;;;;5070137;28;20383;-70
2022/07/11 05:47:14;;;;;;;;;;;18.20;99.90;;;;;;5052359;28;20382;-71
2022/07/11 05:49:39;;;;;;;;;;;18.20;99.90;;;;;;5070628;28;19916;-71
2022/07/11 05:52:05;;;;;;;;;;;18.20;99.90;;;;;;5070364;28;20125;-70
2022/07/11 05:54:30;;;;;;;;;;;18.30;99.90;;;;;;5070442;28;19920;-70
2022/07/11 05:56:56;;;;;;;;;;;18.30;99.90;;;;;;5070119;28;19973;-70
2022/07/11 05:59:21;;;;;;;;;;;18.40;99.90;;;;;;5070064;28;19916;-70
2022/07/11 06:01:47;;;;;;;;;;;18.50;99.90;;;;;;5070063;28;19912;-70
2022/07/11 06:04:13;;;;;;;;;;;18.70;99.90;;;;;;5069909;28;19997;-70
2022/07/11 06:06:38;;;;;;;;;;;18.80;99.90;;;;;;5069985;28;19912;-71
2022/07/11 06:09:04;;;;;;;;;;;18.90;99.90;;;;;;5069881;28;19912;-71
2022/07/11 06:11:31;;;;;;;;;;;19.00;99.90;;;;;;5069889;28;20372;-70
2022/07/11 06:13:56;;;;;;;;;;;19.10;99.90;;;;;;5069716;28;19916;-70
2022/07/11 06:16:22;;;;;;;;;;;19.20;99.90;;;;;;5069833;28;20479;-70
2022/07/11 06:18:48;;;;;;;;;;;19.30;99.90;;;;;;5070392;28;20283;-70
2022/07/11 06:21:13;;;;;;;;;;;19.30;99.90;;;;;;5070346;28;19912;-70
2022/07/11 06:23:40;;;;;;;;;;;19.50;99.90;;;;;;5070227;28;19955;-70
2022/07/11 06:26:06;;;;;;;;;;;19.60;99.90;;;;;;5073033;28;19966;-70
2022/07/11 06:28:31;;;;;;;;;;;19.70;99.90;;;;;;5074029;28;20469;-69
2022/07/11 06:30:57;;;;;;;;;;;19.80;99.90;;;;;;5055624;28;19920;-71
2022/07/11 06:33:22;;;;;;;;;;;19.90;99.90;;;;;;5073903;28;19956;-70
2022/07/11 06:35:48;;;;;;;;;;;20.00;99.90;;;;;;5073758;28;19913;-70
2022/07/11 06:38:14;;;;;;;;;;;20.00;99.90;;;;;;5073774;28;19919;-71
2022/07/11 06:40:41;;;;;;;;;;;20.10;99.90;;;;;;5055381;28;20402;-70
2022/07/11 06:43:07;;;;;;;;;;;20.10;99.90;;;;;;5055613;28;20340;-71
2022/07/11 06:45:36;;;;;;;;;;;20.20;99.90;;;;;;5073483;28;19921;-71
2022/07/11 06:48:01;;;;;;;;;;;20.20;99.90;;;;;;5073755;28;20337;-71
2022/07/11 06:50:27;;;;;;;;;;;20.40;99.90;;;;;;5073230;28;19940;-71
2022/07/11 06:52:53;;;;;;;;;;;20.60;99.90;;;;;;5073418;28;19929;-71
2022/07/11 06:55:18;;;;;;;;;;;20.70;99.90;;;;;;5073197;28;20403;-71
2022/07/11 06:57:44;;;;;;;;;;;20.80;99.90;;;;;;5055174;28;20225;-69
2022/07/11 07:00:10;;;;;;;;;;;20.80;99.90;;;;;;5073163;28;19917;-69
2022/07/11 07:02:36;;;;;;;;;;;20.80;99.90;;;;;;5073148;28;19924;-70
2022/07/11 07:05:01;;;;;;;;;;;20.80;99.90;;;;;;5055088;28;19913;-69
2022/07/11 07:07:27;;;;;;;;;;;20.80;99.90;;;;;;5072981;28;20124;-69
2022/07/11 07:09:53;;;;;;;;;;;20.70;99.90;;;;;;5073044;28;19925;-69
2022/07/11 07:12:19;;;;;;;;;;;20.70;99.90;;;;;;5072819;28;19956;-69
2022/07/11 07:14:45;;;;;;;;;;;20.70;99.90;;;;;;5054641;28;20062;-66
2022/07/11 07:17:10;;;;;;;;;;;20.90;99.90;;;;;;5072897;28;20015;-64
2022/07/11 07:19:36;;;;;;;;;;;20.90;99.90;;;;;;5054403;28;19935;-63
2022/07/11 07:22:01;;;;;;;;;;;21.00;99.90;;;;;;5073182;28;19913;-63
2022/07/11 07:24:27;;;;;;;;;;;21.10;99.90;;;;;;5072611;28;19912;-63
2022/07/11 07:26:52;;;;;;;;;;;21.10;99.90;;;;;;5054723;28;19977;-62
2022/07/11 07:29:18;;;;;;;;;;;21.10;99.90;;;;;;5054933;28;19917;-62
2022/07/11 07:31:44;;;;;;;;;;;21.20;99.90;;;;;;5052920;28;19913;-63
2022/07/11 07:34:09;;;;;;;;;;;21.30;99.90;;;;;;5059692;28;19921;-63
2022/07/11 07:36:35;;;;;;;;;;;21.40;99.90;;;;;;5052147;28;19913;-62
2022/07/11 07:39:00;;;;;;;;;;;21.50;99.90;;;;;;5071758;28;20027;-63
2022/07/11 07:41:27;;;;;;;;;;;21.50;99.90;;;;;;5072917;28;19921;-63
2022/07/11 07:43:52;;;;;;;;;;;21.50;99.90;;;;;;5047510;28;20043;-62
2022/07/11 07:46:18;;;;;;;;;;;21.50;99.90;;;;;;5052471;28;20000;-62
2022/07/11 07:48:43;;;;;;;;;;;21.50;99.90;;;;;;5052713;28;19926;-63
2022/07/11 07:51:09;;;;;;;;;;;21.60;99.90;;;;;;5071674;28;19970;-62
2022/07/11 07:53:35;;;;;;;;;;;21.50;99.90;;;;;;5054615;28;20435;-63
2022/07/11 07:56:01;;;;;;;;;;;21.60;99.90;;;;;;5072425;28;20258;-62
2022/07/11 07:58:29;;;;;;;;;;;21.60;99.90;;;;;;5072884;28;20006;-62
2022/07/11 08:03:39;;;;;;;;;;;21.60;99.90;;;;;;5052922;28;20257;-62
2022/07/11 08:06:04;;;;;;;;;;;21.70;99.90;;;;;;5052591;28;19984;-63
2022/07/11 08:08:29;;;;;;;;;;;21.60;99.90;;;;;;5052998;28;19913;-62
2022/07/11 08:10:55;;;;;;;;;;;21.70;99.90;;;;;;5052588;28;19923;-63
2022/07/11 08:13:22;;;;;;;;;;;21.70;99.90;;;;;;5052452;28;19912;-63
2022/07/11 08:15:47;;;;;;;;;;;21.60;99.90;;;;;;5062499;28;20656;-64
2022/07/11 08:18:13;;;;;;;;;;;21.70;99.90;;;;;;5081255;28;19922;-64
2022/07/11 08:20:38;;;;;;;;;;;21.70;99.90;;;;;;5071645;28;19922;-65
2022/07/11 08:23:04;;;;;;;;;;;21.70;99.90;;;;;;5089099;28;19959;-62
2022/07/11 08:25:30;;;;;;;;;;;21.70;99.90;;;;;;5089658;28;19923;-63
2022/07/11 08:27:55;;;;;;;;;;;21.70;99.90;;;;;;5051827;28;20268;-63
2022/07/11 08:30:21;;;;;;;;;;;21.60;99.90;;;;;;5069057;28;19913;-62
2022/07/11 08:32:46;;;;;;;;;;;21.70;99.90;;;;;;5066611;28;20011;-62
2022/07/11 08:35:14;;;;;;;;;;;21.70;99.90;;;;;;5052079;28;20483;-63
2022/07/11 08:37:39;;;;;;;;;;;21.90;99.90;;;;;;5051603;28;19943;-64
2022/07/11 08:40:05;;;;;;;;;;;22.00;99.90;;;;;;5051186;28;20004;-63
2022/07/11 08:42:31;;;;;;;;;;;22.10;99.90;;;;;;5051606;28;19980;-63
2022/07/11 08:44:57;;;;;;;;;;;22.20;99.90;;;;;;5051227;28;19913;-63
2022/07/11 08:47:23;;;;;;;;;;;22.20;99.90;;;;;;5051430;28;19921;-64
2022/07/11 08:49:49;;;;;;;;;;;22.20;99.90;;;;;;5051188;28;20000;-63
2022/07/11 08:52:16;;;;;;;;;;;22.20;99.90;;;;;;5052276;28;20067;-64
2022/07/11 08:54:41;;;;;;;;;;;22.20;99.90;;;;;;5033286;28;19975;-64
2022/07/11 08:57:07;;;;;;;;;;;22.20;99.90;;;;;;5051462;28;20373;-64
2022/07/11 08:59:33;;;;;;;;;;;22.30;99.90;;;;;;5059099;28;20280;-64
2022/07/11 09:02:01;;;;;;;;;;;22.30;99.90;;;;;;5070820;28;19908;-63
2022/07/11 09:04:28;;;;;;;;;;;22.20;99.90;;;;;;5059405;28;19917;-63
2022/07/11 09:06:53;;;;;;;;;;;22.30;99.90;;;;;;5050966;28;20400;-62
2022/07/11 09:09:19;;;;;;;;;;;22.20;99.90;;;;;;5051543;28;20027;-64
2022/07/11 09:11:51;;;;;;;;;;;22.10;99.90;;;;;;5032945;28;19920;-63
2022/07/11 09:14:35;;;;;;;;;;;22.00;99.90;;;;;;5050667;28;19928;-63
2022/07/11 09:17:02;;;;;;;;;;;21.90;99.90;;;;;;5050840;28;20130;-63
2022/07/11 09:19:28;;;;;;;;;;;21.90;99.90;;;;;;5050225;28;19921;-63
2022/07/11 09:27:39;;;;;;;;;;;22.00;99.90;;;;;;5051304;28;19935;-63
2022/07/11 09:30:15;;;;;;;;;;;22.00;99.90;;;;;;5050629;28;20126;-64
2022/07/11 09:32:54;;;;;;;;;;;22.00;99.90;;;;;;5059535;28;19961;-63
2022/07/11 09:35:20;;;;;;;;;;;22.10;99.90;;;;;;5065413;28;19946;-63
2022/07/11 09:37:45;;;;;;;;;;;22.20;99.90;;;;;;5082096;28;19916;-64
2022/07/11 09:40:12;;;;;;;;;;;22.30;99.90;;;;;;5070591;28;19931;-64
2022/07/11 09:42:47;;;;;;;;;;;22.50;99.90;;;;;;5069906;28;20356;-65
2022/07/11 09:45:12;;;;;;;;;;;22.60;99.90;;;;;;5070548;28;19960;-64
2022/07/11 09:47:45;;;;;;;;;;;22.80;99.90;;;;;;5052642;28;19959;-63
2022/07/11 09:50:11;;;;;;;;;;;23.00;99.90;;;;;;5070559;28;19923;-63
2022/07/11 09:52:36;;;;;;;;;;;23.10;99.90;;;;;;5071039;28;19912;-63
2022/07/11 09:55:02;;;;;;;;;;;23.00;99.90;;;;;;5070632;28;19964;-62
2022/07/11 09:57:32;;;;;;;;;;;22.90;99.90;;;;;;5070778;28;19912;-64
2022/07/11 09:59:58;;;;;;;;;;;23.10;99.90;;;;;;5071584;28;20062;-63
2022/07/11 10:02:24;;;;;;;;;;;23.60;99.90;;;;;;5076887;28;19967;-64
2022/07/11 10:04:49;;;;;;;;;;;23.90;99.90;;;;;;5076795;28;19916;-64
2022/07/11 10:07:15;;;;;;;;;;;23.90;99.90;;;;;;5077150;28;19920;-64
2022/07/11 10:09:40;;;;;;;;;;;23.70;99.90;;;;;;5059134;28;19956;-64
2022/07/11 10:12:07;;;;;;;;;;;23.50;99.90;;;;;;5058920;28;19964;-62
2022/07/11 10:14:35;;;;;;;;;;;23.20;99.90;;;;;;5077073;28;19920;-63
2022/07/11 10:17:14;;;;;;;;;;;23.00;99.90;;;;;;5068662;28;20318;-63
2022/07/11 10:19:44;;;;;;;;;;;22.90;99.90;;;;;;5057211;28;19974;-63
2022/07/11 10:22:29;;;;;;;;;;;22.80;99.90;;;;;;5083643;28;19912;-62
2022/07/11 10:25:01;;;;;;;;;;;22.80;99.90;;;;;;5097037;28;19916;-63
2022/07/11 10:27:30;;;;;;;;;;;23.00;99.90;;;;;;5057062;28;19909;-63
2022/07/11 10:29:55;;;;;;;;;;;23.10;99.90;;;;;;5057184;28;19921;-63
2022/07/11 10:32:21;;;;;;;;;;;23.10;99.90;;;;;;5075007;28;19917;-62
2022/07/11 10:35:05;;;;;;;;;;;23.10;99.90;;;;;;5062388;28;19929;-63
2022/07/11 10:37:44;;;;;;;;;;;23.00;99.90;;;;;;5087225;28;19962;-63
2022/07/11 10:40:10;;;;;;;;;;;22.80;99.90;;;;;;5086592;28;19928;-63
2022/07/11 10:42:40;;;;;;;;;;;22.50;99.90;;;;;;5075791;28;19924;-65
2022/07/11 10:45:12;;;;;;;;;;;22.40;99.90;;;;;;5037268;28;19962;-67
2022/07/11 10:47:44;;;;;;;;;;;22.30;99.90;;;;;;5056129;28;20278;-66
2022/07/11 10:50:32;;;;;;;;;;;22.20;99.90;;;;;;5058455;28;19936;-66
2022/07/11 10:52:57;;;;;;;;;;;22.20;99.90;;;;;;5076804;28;19939;-67
2022/07/11 10:55:37;;;;;;;;;;;22.00;99.90;;;;;;5072618;28;20383;-66
2022/07/11 10:58:21;;;;;;;;;;;21.80;99.90;;;;;;5067200;28;20015;-65
2022/07/11 11:00:48;;;;;;;;;;;21.80;99.90;;;;;;5076426;28;20395;-67
2022/07/11 11:03:16;;;;;;;;;;;21.70;99.90;;;;;;5056484;28;19924;-65
2022/07/11 11:05:48;;;;;;;;;;;21.40;99.90;;;;;;5056375;28;19967;-65
2022/07/11 11:08:32;;;;;;;;;;;21.20;99.90;;;;;;5065924;28;19921;-66
2022/07/11 11:10:59;;;;;;;;;;;21.00;99.90;;;;;;5074805;28;19985;-65
2022/07/11 11:13:25;;;;;;;;;;;21.00;99.90;;;;;;5050380;28;19917;-65
2022/07/11 11:15:54;;;;;;;;;;;20.90;99.90;;;;;;5052885;28;19909;-65
2022/07/11 11:18:25;;;;;;;;;;;20.90;99.90;;;;;;5053364;28;20348;-66
2022/07/11 11:21:02;;;;;;;;;;;20.90;99.90;;;;;;5052883;28;19909;-65
2022/07/11 11:23:31;;;;;;;;;;;20.90;99.90;;;;;;5053197;28;19920;-65
2022/07/11 11:26:09;;;;;;;;;;;21.00;99.90;;;;;;5053291;28;20062;-65
2022/07/11 11:28:35;;;;;;;;;;;21.00;99.90;;;;;;5053137;28;20356;-67
2022/07/11 11:31:07;;;;;;;;;;;21.00;99.90;;;;;;5052591;28;20184;-66
2022/07/11 11:33:33;;;;;;;;;;;21.00;99.90;;;;;;5052848;28;20287;-66
2022/07/11 11:35:58;;;;;;;;;;;20.90;99.90;;;;;;5052750;28;20130;-66
2022/07/11 11:38:24;;;;;;;;;;;20.90;99.90;;;;;;5034774;28;20043;-66
2022/07/11 11:40:50;;;;;;;;;;;20.90;99.90;;;;;;5052504;28;19925;-66
2022/07/11 11:43:22;;;;;;;;;;;20.90;99.90;;;;;;5053474;28;19924;-66
2022/07/11 11:45:50;;;;;;;;;;;20.70;99.90;;;;;;5052752;28;20332;-66
2022/07/11 11:48:28;;;;;;;;;;;20.70;99.90;;;;;;5052724;28;19924;-67
2022/07/11 11:51:07;;;;;;;;;;;20.60;99.90;;;;;;5063788;28;19912;-65
2022/07/11 11:53:36;;;;;;;;;;;20.50;99.90;;;;;;5074737;28;20410;-65
2022/07/11 11:56:29;;;;;;;;;;;20.40;99.90;;;;;;5082508;28;19908;-66
2022/07/11 11:58:55;;;;;;;;;;;20.30;99.90;;;;;;5078375;28;19959;-65
2022/07/11 12:01:25;;;;;;;;;;;20.20;99.90;;;;;;5092314;28;19919;-66
2022/07/11 12:03:54;;;;;;;;;;;20.00;99.90;;;;;;5091800;28;19920;-66
2022/07/11 12:06:24;;;;;;;;;;;19.80;99.90;;;;;;5092467;28;19915;-67
2022/07/11 12:08:50;;;;;;;;;;;19.60;99.90;;;;;;5092405;28;19951;-66
2022/07/11 12:11:16;;;;;;;;;;;19.50;99.90;;;;;;5091150;28;20292;-67
2022/07/11 12:13:41;;;;;;;;;;;19.50;99.90;;;;;;5053574;28;20392;-67
2022/07/11 12:19:07;;;;;;;;;;;19.30;99.90;;;;;;5045863;28;20019;-66
2022/07/11 12:21:34;;;;;;;;;;;19.20;99.90;;;;;;5051599;28;20370;-66
2022/07/11 12:24:00;;;;;;;;;;;19.10;99.90;;;;;;5050626;28;19924;-66
2022/07/11 12:26:30;;;;;;;;;;;18.90;99.90;;;;;;5051384;28;19948;-65
2022/07/11 12:29:05;;;;;;;;;;;18.80;99.90;;;;;;5051505;28;20379;-66
2022/07/11 12:31:49;;;;;;;;;;;18.70;99.90;;;;;;5051472;28;19909;-66
2022/07/11 12:34:18;;;;;;;;;;;18.70;99.90;;;;;;5051930;28;20012;-67
2022/07/11 12:36:45;;;;;;;;;;;18.70;99.90;;;;;;5066522;28;20402;-66
2022/07/11 12:39:28;;;;;;;;;;;18.70;99.90;;;;;;5078794;28;19916;-66
2022/07/11 12:41:54;;;;;;;;;;;18.70;99.90;;;;;;5072194;28;19924;-66
2022/07/11 12:47:08;;;;;;;;;;;18.80;99.90;;;;;;5091721;28;20003;-65
2022/07/11 12:49:33;;;;;;;;;;;18.80;99.90;;;;;;5071328;28;20011;-66
2022/07/11 12:52:00;;;;;;;;;;;18.80;99.90;;;;;;5083083;28;20337;-65
2022/07/11 12:54:29;;;;;;;;;;;19.00;99.90;;;;;;5091168;28;20390;-64
2022/07/11 12:57:00;;;;;;;;;;;19.00;99.90;;;;;;5071311;28;20061;-65
2022/07/11 12:59:26;;;;;;;;;;;19.00;99.90;;;;;;5052624;28;19908;-66
2022/07/11 13:01:58;;;;;;;;;;;19.10;99.90;;;;;;5070965;28;20000;-66
2022/07/11 13:04:30;;;;;;;;;;;19.20;99.90;;;;;;5070688;28;20357;-66
2022/07/11 13:09:40;;;;;;;;;;;19.30;99.90;;;;;;5090818;28;19915;-65
2022/07/11 13:12:06;;;;;;;;;;;19.30;99.90;;;;;;5090830;28;19916;-65
2022/07/11 13:17:16;;;;;;;;;;;19.40;99.90;;;;;;5091411;28;19968;-65
2022/07/11 13:19:41;;;;;;;;;;;19.40;99.90;;;;;;5072282;28;20023;-65
2022/07/11 13:22:07;;;;;;;;;;;19.40;99.90;;;;;;5090714;28;19923;-64
2022/07/11 13:24:32;;;;;;;;;;;19.50;99.90;;;;;;5065544;28;20062;-66
2022/07/11 13:26:58;;;;;;;;;;;19.40;99.90;;;;;;5050048;28;19917;-65
2022/07/11 13:29:23;;;;;;;;;;;19.40;99.90;;;;;;5050394;28;19924;-66
2022/07/11 13:31:49;;;;;;;;;;;19.40;99.90;;;;;;5064111;28;20021;-64
2022/07/11 13:34:15;;;;;;;;;;;19.40;99.90;;;;;;5069477;28;19913;-65
2022/07/11 13:36:40;;;;;;;;;;;19.40;99.90;;;;;;5065804;28;19915;-66
2022/07/11 13:39:06;;;;;;;;;;;19.40;99.90;;;;;;5050156;28;19995;-65
2022/07/11 13:41:31;;;;;;;;;;;19.40;99.90;;;;;;5059698;28;19920;-64
2022/07/11 13:43:57;;;;;;;;;;;19.40;99.90;;;;;;5081295;28;19912;-65
2022/07/11 13:46:23;;;;;;;;;;;19.40;99.90;;;;;;5070088;28;20456;-65
2022/07/11 13:48:48;;;;;;;;;;;19.30;99.90;;;;;;5078069;28;19912;-64
2022/07/11 13:51:14;;;;;;;;;;;19.20;99.90;;;;;;5050007;28;19917;-65
2022/07/11 13:53:39;;;;;;;;;;;19.20;99.90;;;;;;5050251;28;19917;-65
2022/07/11 13:56:05;;;;;;;;;;;19.00;99.90;;;;;;5032145;28;19951;-68
2022/07/11 13:58:31;;;;;;;;;;;19.00;99.90;;;;;;5050880;28;19913;-64
2022/07/11 14:00:59;;;;;;;;;;;19.00;99.90;;;;;;5075889;28;19954;-65
2022/07/11 14:03:25;;;;;;;;;;;18.80;99.90;;;;;;5090417;28;19993;-65
2022/07/11 14:05:51;;;;;;;;;;;18.70;99.90;;;;;;5090029;28;19916;-65
2022/07/11 14:08:16;;;;;;;;;;;18.50;99.90;;;;;;5081160;28;19951;-65
2022/07/11 14:10:42;;;;;;;;;;;18.30;99.90;;;;;;5071603;28;19955;-65
2022/07/11 14:13:08;;;;;;;;;;;18.00;99.90;;;;;;5074477;28;19981;-65
2022/07/11 14:15:33;;;;;;;;;;;17.80;99.90;;;;;;5065053;28;19917;-65
2022/07/11 14:17:59;;;;;;;;;;;17.60;99.90;;;;;;5050089;28;19923;-65
2022/07/11 14:20:26;;;;;;;;;;;17.50;99.90;;;;;;5049815;28;20360;-63
2022/07/11 14:22:51;;;;;;;;;;;17.40;99.90;;;;;;5049902;28;20340;-65
2022/07/11 14:25:17;;;;;;;;;;;17.20;99.90;;;;;;5058843;28;19958;-67
2022/07/11 14:27:42;;;;;;;;;;;17.10;99.90;;;;;;5090252;28;19930;-65
2022/07/11 14:30:08;;;;;;;;;;;17.00;99.90;;;;;;5090071;28;19916;-65
2022/07/11 14:32:34;;;;;;;;;;;16.90;99.90;;;;;;5064542;28;19924;-67
2022/07/11 14:34:59;;;;;;;;;;;16.90;99.90;;;;;;5049308;28;19975;-67